sensor_id;sensor_type;location;lat;lon;timestamp;temperature;humidity
2945;DHT22;1482;51.398;7.128;2022-08-19T00:00:01;20.10;1.00
2945;DHT22;1482;51.398;7.128;2022-08-19T00:02:26;20.00;1.00
2945;DHT22;1482;51.398;7.128;2022-08-19T00:04:52;20.00;1.00
2945;DHT22;1482;51.398;7.128;2022-08-19T00:07:18;20.00;1.00
2945;DHT22;1482;51.398;7.128;2022-08-19T00:09:44;20.00;1.00
2945;DHT22;1482;51.398;7.128;2022-08-19T00:12:10;20.00;1.00
2945;DHT22;1482;51.398;7.128;2022-08-19T00:14:36;19.90;1.00
2945;DHT22;1482;51.398;7.128;2022-08-19T00:17:02;19.90;1.00
2945;DHT22;1482;51.398;7.128;2022-08-19T00:19:28;19.90;1.00
2945;DHT22;1482;51.398;7.128;2022-08-19T00:21:54;19.90;1.00
2945;DHT22;1482;51.398;7.128;2022-08-19T00:24:21;19.90;1.00
2945;DHT22;1482;51.398;7.128;2022-08-19T00:26:47;19.90;1.00
2945;DHT22;1482;51.398;7.128;2022-08-19T00:29:16;19.90;1.00
2945;DHT22;1482;51.398;7.128;2022-08-19T00:31:43;19.90;1.00
2945;DHT22;1482;51.398;7.128;2022-08-19T00:34:10;19.80;1.00
2945;DHT22;1482;51.398;7.128;2022-08-19T00:36:37;19.80;1.00
2945;DHT22;1482;51.398;7.128;2022-08-19T00:39:03;19.80;1.00
2945;DHT22;1482;51.398;7.128;2022-08-19T00:41:29;19.80;1.00
2945;DHT22;1482;51.398;7.128;2022-08-19T00:44:07;19.80;1.00
2945;DHT22;1482;51.398;7.128;2022-08-19T00:46:35;19.70;1.00
2945;DHT22;1482;51.398;7.128;2022-08-19T00:49:12;19.70;1.00
2945;DHT22;1482;51.398;7.128;2022-08-19T00:51:41;19.70;1.00
2945;DHT22;1482;51.398;7.128;2022-08-19T00:54:07;19.70;1.00
2945;DHT22;1482;51.398;7.128;2022-08-19T00:56:34;19.70;1.70
2945;DHT22;1482;51.398;7.128;2022-08-19T00:59:01;19.60;8.10
2945;DHT22;1482;51.398;7.128;2022-08-19T01:01:27;19.60;14.00
2945;DHT22;1482;51.398;7.128;2022-08-19T01:03:53;19.60;14.10
2945;DHT22;1482;51.398;7.128;2022-08-19T01:06:18;19.50;13.50
2945;DHT22;1482;51.398;7.128;2022-08-19T01:08:44;19.50;17.20
2945;DHT22;1482;51.398;7.128;2022-08-19T01:11:10;19.50;17.40
2945;DHT22;1482;51.398;7.128;2022-08-19T01:13:35;19.40;18.90
2945;DHT22;1482;51.398;7.128;2022-08-19T01:16:06;19.40;19.60
2945;DHT22;1482;51.398;7.128;2022-08-19T01:18:36;19.40;22.80
2945;DHT22;1482;51.398;7.128;2022-08-19T01:21:09;19.30;25.40
2945;DHT22;1482;51.398;7.128;2022-08-19T01:23:36;19.30;32.60
2945;DHT22;1482;51.398;7.128;2022-08-19T01:26:14;19.30;34.30
2945;DHT22;1482;51.398;7.128;2022-08-19T01:28:40;19.30;37.10
2945;DHT22;1482;51.398;7.128;2022-08-19T01:31:13;19.30;48.80
2945;DHT22;1482;51.398;7.128;2022-08-19T01:33:39;19.30;55.50
2945;DHT22;1482;51.398;7.128;2022-08-19T01:36:11;19.40;62.50
2945;DHT22;1482;51.398;7.128;2022-08-19T01:38:41;19.30;56.70
2945;DHT22;1482;51.398;7.128;2022-08-19T01:41:09;19.20;69.60
2945;DHT22;1482;51.398;7.128;2022-08-19T01:43:35;19.20;66.00
2945;DHT22;1482;51.398;7.128;2022-08-19T01:46:02;19.20;84.00
2945;DHT22;1482;51.398;7.128;2022-08-19T01:48:37;19.20;83.90
2945;DHT22;1482;51.398;7.128;2022-08-19T01:51:03;19.20;86.90
2945;DHT22;1482;51.398;7.128;2022-08-19T01:53:29;19.10;86.00
2945;DHT22;1482;51.398;7.128;2022-08-19T01:55:55;19.10;82.70
2945;DHT22;1482;51.398;7.128;2022-08-19T01:58:23;19.10;73.80
2945;DHT22;1482;51.398;7.128;2022-08-19T02:00:50;19.10;69.00
2945;DHT22;1482;51.398;7.128;2022-08-19T02:03:16;19.10;71.10
2945;DHT22;1482;51.398;7.128;2022-08-19T02:05:43;19.00;73.80
2945;DHT22;1482;51.398;7.128;2022-08-19T02:08:10;19.00;75.00
2945;DHT22;1482;51.398;7.128;2022-08-19T02:10:40;19.00;78.30
2945;DHT22;1482;51.398;7.128;2022-08-19T02:13:06;18.90;84.60
2945;DHT22;1482;51.398;7.128;2022-08-19T02:15:31;18.90;84.50
2945;DHT22;1482;51.398;7.128;2022-08-19T02:17:57;18.90;79.80
2945;DHT22;1482;51.398;7.128;2022-08-19T02:20:24;18.90;87.50
2945;DHT22;1482;51.398;7.128;2022-08-19T02:22:49;18.90;90.40
2945;DHT22;1482;51.398;7.128;2022-08-19T02:25:15;18.80;92.50
2945;DHT22;1482;51.398;7.128;2022-08-19T02:27:42;18.80;94.70
2945;DHT22;1482;51.398;7.128;2022-08-19T02:30:11;18.80;99.90
2945;DHT22;1482;51.398;7.128;2022-08-19T02:32:37;18.80;99.90
2945;DHT22;1482;51.398;7.128;2022-08-19T02:35:03;18.80;99.90
2945;DHT22;1482;51.398;7.128;2022-08-19T02:37:28;18.80;99.90
2945;DHT22;1482;51.398;7.128;2022-08-19T02:40:13;18.80;99.90
2945;DHT22;1482;51.398;7.128;2022-08-19T02:42:38;18.80;99.90
2945;DHT22;1482;51.398;7.128;2022-08-19T02:45:06;18.80;99.90
2945;DHT22;1482;51.398;7.128;2022-08-19T02:47:33;18.70;99.90
2945;DHT22;1482;51.398;7.128;2022-08-19T02:50:01;18.70;99.90
2945;DHT22;1482;51.398;7.128;2022-08-19T02:52:27;18.70;99.90
2945;DHT22;1482;51.398;7.128;2022-08-19T02:54:53;18.70;99.90
2945;DHT22;1482;51.398;7.128;2022-08-19T02:57:20;18.60;99.90
2945;DHT22;1482;51.398;7.128;2022-08-19T02:59:46;18.60;99.90
2945;DHT22;1482;51.398;7.128;2022-08-19T03:02:12;18.60;99.90
2945;DHT22;1482;51.398;7.128;2022-08-19T03:04:37;18.60;99.90
2945;DHT22;1482;51.398;7.128;2022-08-19T03:07:03;18.70;99.90
2945;DHT22;1482;51.398;7.128;2022-08-19T03:09:28;18.60;99.90
2945;DHT22;1482;51.398;7.128;2022-08-19T03:11:55;18.70;99.90
2945;DHT22;1482;51.398;7.128;2022-08-19T03:14:21;18.60;99.90
2945;DHT22;1482;51.398;7.128;2022-08-19T03:16:51;18.60;99.90
2945;DHT22;1482;51.398;7.128;2022-08-19T03:19:18;18.60;99.90
2945;DHT22;1482;51.398;7.128;2022-08-19T03:21:45;18.60;99.90
2945;DHT22;1482;51.398;7.128;2022-08-19T03:24:11;18.60;99.90
2945;DHT22;1482;51.398;7.128;2022-08-19T03:26:42;18.60;99.90
2945;DHT22;1482;51.398;7.128;2022-08-19T03:29:08;18.60;99.90
2945;DHT22;1482;51.398;7.128;2022-08-19T03:31:36;18.60;99.90
2945;DHT22;1482;51.398;7.128;2022-08-19T03:34:02;18.60;99.90
2945;DHT22;1482;51.398;7.128;2022-08-19T03:36:28;18.60;99.90
2945;DHT22;1482;51.398;7.128;2022-08-19T03:38:56;18.60;99.90
2945;DHT22;1482;51.398;7.128;2022-08-19T03:41:31;18.50;99.90
2945;DHT22;1482;51.398;7.128;2022-08-19T03:43:57;18.50;99.90
2945;DHT22;1482;51.398;7.128;2022-08-19T03:46:28;18.50;99.90
2945;DHT22;1482;51.398;7.128;2022-08-19T03:48:57;18.50;99.90
2945;DHT22;1482;51.398;7.128;2022-08-19T03:51:33;18.50;99.90
2945;DHT22;1482;51.398;7.128;2022-08-19T03:54:01;18.60;99.90
2945;DHT22;1482;51.398;7.128;2022-08-19T03:56:28;18.50;99.90
2945;DHT22;1482;51.398;7.128;2022-08-19T03:58:55;18.50;99.90
2945;DHT22;1482;51.398;7.128;2022-08-19T04:01:22;18.50;99.90
2945;DHT22;1482;51.398;7.128;2022-08-19T04:03:49;18.50;99.90
2945;DHT22;1482;51.398;7.128;2022-08-19T04:06:21;18.40;99.90
2945;DHT22;1482;51.398;7.128;2022-08-19T04:08:49;18.40;99.90
2945;DHT22;1482;51.398;7.128;2022-08-19T04:11:18;18.40;99.90
2945;DHT22;1482;51.398;7.128;2022-08-19T04:13:45;18.40;99.90
2945;DHT22;1482;51.398;7.128;2022-08-19T04:16:12;18.40;99.90
2945;DHT22;1482;51.398;7.128;2022-08-19T04:18:39;18.40;99.90
2945;DHT22;1482;51.398;7.128;2022-08-19T04:21:07;18.30;99.90
2945;DHT22;1482;51.398;7.128;2022-08-19T04:23:34;18.30;99.90
2945;DHT22;1482;51.398;7.128;2022-08-19T04:26:02;18.20;99.90
2945;DHT22;1482;51.398;7.128;2022-08-19T04:28:28;18.20;99.90
2945;DHT22;1482;51.398;7.128;2022-08-19T04:30:55;18.20;99.90
2945;DHT22;1482;51.398;7.128;2022-08-19T04:33:23;18.20;99.90
2945;DHT22;1482;51.398;7.128;2022-08-19T04:35:50;18.20;99.90
2945;DHT22;1482;51.398;7.128;2022-08-19T04:38:17;18.20;99.90
2945;DHT22;1482;51.398;7.128;2022-08-19T04:40:46;18.20;99.90
2945;DHT22;1482;51.398;7.128;2022-08-19T04:43:32;18.30;99.90
2945;DHT22;1482;51.398;7.128;2022-08-19T04:45:58;18.30;99.90
2945;DHT22;1482;51.398;7.128;2022-08-19T04:48:23;18.40;99.90
2945;DHT22;1482;51.398;7.128;2022-08-19T04:50:56;18.40;99.90
2945;DHT22;1482;51.398;7.128;2022-08-19T04:53:29;18.50;99.90
2945;DHT22;1482;51.398;7.128;2022-08-19T04:55:56;18.50;99.90
2945;DHT22;1482;51.398;7.128;2022-08-19T04:58:23;18.60;99.90
2945;DHT22;1482;51.398;7.128;2022-08-19T05:00:49;18.70;99.90
2945;DHT22;1482;51.398;7.128;2022-08-19T05:03:15;18.80;99.90
2945;DHT22;1482;51.398;7.128;2022-08-19T05:05:42;18.80;99.90
2945;DHT22;1482;51.398;7.128;2022-08-19T05:08:08;18.90;99.90
2945;DHT22;1482;51.398;7.128;2022-08-19T05:10:39;18.90;99.90
2945;DHT22;1482;51.398;7.128;2022-08-19T05:13:05;19.00;99.90
2945;DHT22;1482;51.398;7.128;2022-08-19T05:15:31;19.00;99.90
2945;DHT22;1482;51.398;7.128;2022-08-19T05:17:57;19.10;99.90
2945;DHT22;1482;51.398;7.128;2022-08-19T05:20:41;19.20;99.90
2945;DHT22;1482;51.398;7.128;2022-08-19T05:23:25;19.40;99.90
2945;DHT22;1482;51.398;7.128;2022-08-19T05:25:51;19.60;99.90
2945;DHT22;1482;51.398;7.128;2022-08-19T05:28:19;19.80;99.90
2945;DHT22;1482;51.398;7.128;2022-08-19T05:30:44;20.10;75.00
2945;DHT22;1482;51.398;7.128;2022-08-19T05:33:11;20.50;51.50
2945;DHT22;1482;51.398;7.128;2022-08-19T05:35:38;21.20;1.10
2945;DHT22;1482;51.398;7.128;2022-08-19T05:38:03;22.30;1.00
2945;DHT22;1482;51.398;7.128;2022-08-19T05:40:29;23.90;1.00
2945;DHT22;1482;51.398;7.128;2022-08-19T05:42:55;25.60;1.00
2945;DHT22;1482;51.398;7.128;2022-08-19T05:45:21;27.40;1.00
2945;DHT22;1482;51.398;7.128;2022-08-19T05:47:47;29.00;1.00
2945;DHT22;1482;51.398;7.128;2022-08-19T05:50:13;30.10;1.00
2945;DHT22;1482;51.398;7.128;2022-08-19T05:52:39;30.70;1.00
2945;DHT22;1482;51.398;7.128;2022-08-19T05:55:05;31.60;1.00
2945;DHT22;1482;51.398;7.128;2022-08-19T05:57:30;32.50;1.00
2945;DHT22;1482;51.398;7.128;2022-08-19T05:59:57;33.30;1.00
2945;DHT22;1482;51.398;7.128;2022-08-19T06:02:22;34.10;1.00
2945;DHT22;1482;51.398;7.128;2022-08-19T06:04:48;34.50;1.00
2945;DHT22;1482;51.398;7.128;2022-08-19T06:07:14;34.30;1.00
2945;DHT22;1482;51.398;7.128;2022-08-19T06:09:40;33.30;1.00
2945;DHT22;1482;51.398;7.128;2022-08-19T06:12:06;32.50;1.00
2945;DHT22;1482;51.398;7.128;2022-08-19T06:14:34;32.40;1.00
2945;DHT22;1482;51.398;7.128;2022-08-19T06:17:02;33.20;1.00
2945;DHT22;1482;51.398;7.128;2022-08-19T06:19:28;34.50;1.00
2945;DHT22;1482;51.398;7.128;2022-08-19T06:21:56;35.80;1.00
2945;DHT22;1482;51.398;7.128;2022-08-19T06:24:24;36.80;1.00
2945;DHT22;1482;51.398;7.128;2022-08-19T06:26:52;37.20;1.00
2945;DHT22;1482;51.398;7.128;2022-08-19T06:29:20;37.90;1.00
2945;DHT22;1482;51.398;7.128;2022-08-19T06:31:49;38.60;1.00
2945;DHT22;1482;51.398;7.128;2022-08-19T06:34:15;39.40;1.00
2945;DHT22;1482;51.398;7.128;2022-08-19T06:36:43;40.00;1.00
2945;DHT22;1482;51.398;7.128;2022-08-19T06:39:31;40.60;1.00
2945;DHT22;1482;51.398;7.128;2022-08-19T06:42:00;40.50;1.00
2945;DHT22;1482;51.398;7.128;2022-08-19T06:44:29;40.30;1.00
2945;DHT22;1482;51.398;7.128;2022-08-19T06:47:05;40.20;1.00
2945;DHT22;1482;51.398;7.128;2022-08-19T06:49:31;39.90;1.00
2945;DHT22;1482;51.398;7.128;2022-08-19T06:51:57;39.80;1.00
2945;DHT22;1482;51.398;7.128;2022-08-19T06:54:24;40.20;1.00
2945;DHT22;1482;51.398;7.128;2022-08-19T06:56:51;40.50;1.00
2945;DHT22;1482;51.398;7.128;2022-08-19T06:59:19;40.40;1.00
2945;DHT22;1482;51.398;7.128;2022-08-19T07:01:50;39.70;1.00
2945;DHT22;1482;51.398;7.128;2022-08-19T07:04:19;39.00;1.00
2945;DHT22;1482;51.398;7.128;2022-08-19T07:06:45;38.70;1.00
2945;DHT22;1482;51.398;7.128;2022-08-19T07:09:14;38.50;1.00
2945;DHT22;1482;51.398;7.128;2022-08-19T07:11:45;38.70;1.00
2945;DHT22;1482;51.398;7.128;2022-08-19T07:14:10;39.60;1.00
2945;DHT22;1482;51.398;7.128;2022-08-19T07:16:36;40.40;1.00
2945;DHT22;1482;51.398;7.128;2022-08-19T07:19:02;41.50;1.00
2945;DHT22;1482;51.398;7.128;2022-08-19T07:21:28;42.80;1.00
2945;DHT22;1482;51.398;7.128;2022-08-19T07:23:55;43.70;1.00
2945;DHT22;1482;51.398;7.128;2022-08-19T07:26:27;44.40;1.00
2945;DHT22;1482;51.398;7.128;2022-08-19T07:28:54;44.40;1.00
2945;DHT22;1482;51.398;7.128;2022-08-19T07:31:22;43.90;1.00
2945;DHT22;1482;51.398;7.128;2022-08-19T07:33:49;43.70;1.00
2945;DHT22;1482;51.398;7.128;2022-08-19T07:36:18;43.20;1.00
2945;DHT22;1482;51.398;7.128;2022-08-19T07:38:46;43.00;1.00
2945;DHT22;1482;51.398;7.128;2022-08-19T07:41:23;42.30;1.00
2945;DHT22;1482;51.398;7.128;2022-08-19T07:43:49;41.50;1.00
2945;DHT22;1482;51.398;7.128;2022-08-19T07:46:16;41.00;1.00
2945;DHT22;1482;51.398;7.128;2022-08-19T07:48:43;40.60;1.00
2945;DHT22;1482;51.398;7.128;2022-08-19T07:51:13;40.10;1.00
2945;DHT22;1482;51.398;7.128;2022-08-19T07:53:39;40.30;1.00
2945;DHT22;1482;51.398;7.128;2022-08-19T07:56:05;41.10;1.00
2945;DHT22;1482;51.398;7.128;2022-08-19T07:58:36;42.20;1.00
2945;DHT22;1482;51.398;7.128;2022-08-19T08:01:04;43.30;1.00
2945;DHT22;1482;51.398;7.128;2022-08-19T08:03:30;43.90;1.00
2945;DHT22;1482;51.398;7.128;2022-08-19T08:06:15;43.90;1.00
2945;DHT22;1482;51.398;7.128;2022-08-19T08:09:00;44.10;1.00
2945;DHT22;1482;51.398;7.128;2022-08-19T08:14:17;41.90;1.00
2945;DHT22;1482;51.398;7.128;2022-08-19T08:16:43;41.20;1.00
2945;DHT22;1482;51.398;7.128;2022-08-19T08:19:11;40.60;1.00
2945;DHT22;1482;51.398;7.128;2022-08-19T08:21:37;40.40;1.00
2945;DHT22;1482;51.398;7.128;2022-08-19T08:24:02;41.00;1.00
2945;DHT22;1482;51.398;7.128;2022-08-19T08:26:28;42.00;1.00
2945;DHT22;1482;51.398;7.128;2022-08-19T08:28:54;43.20;1.00
2945;DHT22;1482;51.398;7.128;2022-08-19T08:31:20;43.40;1.00
2945;DHT22;1482;51.398;7.128;2022-08-19T08:33:46;43.70;1.00
2945;DHT22;1482;51.398;7.128;2022-08-19T08:36:12;43.60;1.00
2945;DHT22;1482;51.398;7.128;2022-08-19T08:38:42;43.30;1.00
2945;DHT22;1482;51.398;7.128;2022-08-19T08:44:04;41.00;1.00
2945;DHT22;1482;51.398;7.128;2022-08-19T08:51:32;38.20;1.00
2945;DHT22;1482;51.398;7.128;2022-08-19T08:53:59;37.80;1.00
2945;DHT22;1482;51.398;7.128;2022-08-19T08:56:25;37.40;1.00
2945;DHT22;1482;51.398;7.128;2022-08-19T08:59:29;37.00;1.00
2945;DHT22;1482;51.398;7.128;2022-08-19T09:01:52;36.60;1.00
2945;DHT22;1482;51.398;7.128;2022-08-19T09:04:18;36.10;1.00
2945;DHT22;1482;51.398;7.128;2022-08-19T09:09:49;35.80;1.00
2945;DHT22;1482;51.398;7.128;2022-08-19T09:15:11;35.70;1.00
2945;DHT22;1482;51.398;7.128;2022-08-19T09:17:37;35.50;1.00
2945;DHT22;1482;51.398;7.128;2022-08-19T09:20:22;35.40;1.00
2945;DHT22;1482;51.398;7.128;2022-08-19T09:22:48;35.40;1.00
2945;DHT22;1482;51.398;7.128;2022-08-19T09:25:18;35.30;1.00
2945;DHT22;1482;51.398;7.128;2022-08-19T09:27:45;34.80;1.00
2945;DHT22;1482;51.398;7.128;2022-08-19T09:30:17;34.90;1.00
2945;DHT22;1482;51.398;7.128;2022-08-19T09:32:44;34.80;1.00
2945;DHT22;1482;51.398;7.128;2022-08-19T09:35:11;34.30;1.00
2945;DHT22;1482;51.398;7.128;2022-08-19T09:37:36;33.80;1.00
2945;DHT22;1482;51.398;7.128;2022-08-19T09:40:03;33.40;1.00
2945;DHT22;1482;51.398;7.128;2022-08-19T09:42:28;33.10;1.00
2945;DHT22;1482;51.398;7.128;2022-08-19T09:44:54;32.90;1.00
2945;DHT22;1482;51.398;7.128;2022-08-19T09:47:19;32.50;1.00
2945;DHT22;1482;51.398;7.128;2022-08-19T09:49:45;32.40;1.00
2945;DHT22;1482;51.398;7.128;2022-08-19T09:52:11;32.50;1.00
2945;DHT22;1482;51.398;7.128;2022-08-19T09:54:38;32.60;1.00
2945;DHT22;1482;51.398;7.128;2022-08-19T09:57:04;32.90;1.00
2945;DHT22;1482;51.398;7.128;2022-08-19T09:59:30;32.90;1.00
2945;DHT22;1482;51.398;7.128;2022-08-19T10:01:56;32.90;1.00
2945;DHT22;1482;51.398;7.128;2022-08-19T10:04:22;33.10;1.00
2945;DHT22;1482;51.398;7.128;2022-08-19T10:06:49;33.00;1.00
2945;DHT22;1482;51.398;7.128;2022-08-19T10:09:16;33.10;1.00
2945;DHT22;1482;51.398;7.128;2022-08-19T10:11:44;33.30;1.00
2945;DHT22;1482;51.398;7.128;2022-08-19T10:14:13;33.30;1.00
2945;DHT22;1482;51.398;7.128;2022-08-19T10:16:39;33.50;1.00
2945;DHT22;1482;51.398;7.128;2022-08-19T10:19:06;33.70;1.00
2945;DHT22;1482;51.398;7.128;2022-08-19T10:21:32;33.50;1.00
2945;DHT22;1482;51.398;7.128;2022-08-19T10:24:01;33.40;1.00
2945;DHT22;1482;51.398;7.128;2022-08-19T10:26:32;33.20;1.00
2945;DHT22;1482;51.398;7.128;2022-08-19T10:28:57;32.90;1.00
2945;DHT22;1482;51.398;7.128;2022-08-19T10:31:26;32.20;1.00
2945;DHT22;1482;51.398;7.128;2022-08-19T10:33:52;32.10;1.00
2945;DHT22;1482;51.398;7.128;2022-08-19T10:36:24;31.50;1.00
2945;DHT22;1482;51.398;7.128;2022-08-19T10:38:54;31.40;1.00
2945;DHT22;1482;51.398;7.128;2022-08-19T10:41:24;31.60;1.00
2945;DHT22;1482;51.398;7.128;2022-08-19T10:43:52;31.70;1.00
2945;DHT22;1482;51.398;7.128;2022-08-19T10:46:20;31.80;1.00
2945;DHT22;1482;51.398;7.128;2022-08-19T10:48:45;31.70;1.00
2945;DHT22;1482;51.398;7.128;2022-08-19T10:51:12;31.80;1.00
2945;DHT22;1482;51.398;7.128;2022-08-19T10:53:56;31.80;1.00
2945;DHT22;1482;51.398;7.128;2022-08-19T10:56:23;31.90;1.00
2945;DHT22;1482;51.398;7.128;2022-08-19T10:59:08;31.80;1.00
2945;DHT22;1482;51.398;7.128;2022-08-19T11:01:34;31.60;1.00
2945;DHT22;1482;51.398;7.128;2022-08-19T11:04:01;31.50;1.00
2945;DHT22;1482;51.398;7.128;2022-08-19T11:06:28;31.50;1.00
2945;DHT22;1482;51.398;7.128;2022-08-19T11:08:55;31.50;1.00
2945;DHT22;1482;51.398;7.128;2022-08-19T11:11:21;31.70;1.00
2945;DHT22;1482;51.398;7.128;2022-08-19T11:13:48;32.00;1.00
2945;DHT22;1482;51.398;7.128;2022-08-19T11:16:26;32.20;1.00
2945;DHT22;1482;51.398;7.128;2022-08-19T11:18:54;32.60;1.00
2945;DHT22;1482;51.398;7.128;2022-08-19T11:21:27;32.80;1.00
2945;DHT22;1482;51.398;7.128;2022-08-19T11:23:56;33.10;1.00
2945;DHT22;1482;51.398;7.128;2022-08-19T11:26:23;33.20;1.00
2945;DHT22;1482;51.398;7.128;2022-08-19T11:28:49;33.20;1.00
2945;DHT22;1482;51.398;7.128;2022-08-19T11:31:19;33.30;1.00
2945;DHT22;1482;51.398;7.128;2022-08-19T11:33:46;33.40;1.00
2945;DHT22;1482;51.398;7.128;2022-08-19T11:36:12;33.40;1.00
2945;DHT22;1482;51.398;7.128;2022-08-19T11:38:38;33.60;1.00
2945;DHT22;1482;51.398;7.128;2022-08-19T11:41:06;33.50;1.00
2945;DHT22;1482;51.398;7.128;2022-08-19T11:43:36;33.30;1.00
2945;DHT22;1482;51.398;7.128;2022-08-19T11:46:10;33.10;1.00
2945;DHT22;1482;51.398;7.128;2022-08-19T11:48:37;33.10;1.00
2945;DHT22;1482;51.398;7.128;2022-08-19T11:51:08;33.20;1.00
2945;DHT22;1482;51.398;7.128;2022-08-19T11:53:35;33.00;1.00
2945;DHT22;1482;51.398;7.128;2022-08-19T11:56:01;32.90;1.00
2945;DHT22;1482;51.398;7.128;2022-08-19T11:58:27;33.00;1.00
2945;DHT22;1482;51.398;7.128;2022-08-19T12:00:55;33.10;1.00
2945;DHT22;1482;51.398;7.128;2022-08-19T12:03:21;32.90;1.00
2945;DHT22;1482;51.398;7.128;2022-08-19T12:05:47;32.80;1.00
2945;DHT22;1482;51.398;7.128;2022-08-19T12:08:12;32.70;1.00
2945;DHT22;1482;51.398;7.128;2022-08-19T12:10:39;32.70;1.00
2945;DHT22;1482;51.398;7.128;2022-08-19T12:13:06;32.70;1.00
2945;DHT22;1482;51.398;7.128;2022-08-19T12:15:38;32.70;1.00
2945;DHT22;1482;51.398;7.128;2022-08-19T12:18:07;32.70;1.00
2945;DHT22;1482;51.398;7.128;2022-08-19T12:20:37;32.70;1.00
2945;DHT22;1482;51.398;7.128;2022-08-19T12:23:04;32.60;1.00
2945;DHT22;1482;51.398;7.128;2022-08-19T12:25:30;32.60;1.00
2945;DHT22;1482;51.398;7.128;2022-08-19T12:27:56;32.80;1.00
2945;DHT22;1482;51.398;7.128;2022-08-19T12:30:22;32.70;1.00
2945;DHT22;1482;51.398;7.128;2022-08-19T12:32:47;32.70;1.00
2945;DHT22;1482;51.398;7.128;2022-08-19T12:35:13;32.60;1.00
2945;DHT22;1482;51.398;7.128;2022-08-19T12:37:39;32.60;1.00
2945;DHT22;1482;51.398;7.128;2022-08-19T12:40:10;32.50;1.00
2945;DHT22;1482;51.398;7.128;2022-08-19T12:42:37;32.20;1.00
2945;DHT22;1482;51.398;7.128;2022-08-19T12:45:07;32.00;1.00
2945;DHT22;1482;51.398;7.128;2022-08-19T12:47:32;32.10;1.00
2945;DHT22;1482;51.398;7.128;2022-08-19T12:49:58;32.20;1.00
2945;DHT22;1482;51.398;7.128;2022-08-19T12:52:25;32.10;1.00
2945;DHT22;1482;51.398;7.128;2022-08-19T12:54:53;31.90;1.00
2945;DHT22;1482;51.398;7.128;2022-08-19T12:57:19;31.90;1.00
2945;DHT22;1482;51.398;7.128;2022-08-19T12:59:45;31.80;1.00
2945;DHT22;1482;51.398;7.128;2022-08-19T13:02:10;31.50;1.00
2945;DHT22;1482;51.398;7.128;2022-08-19T13:04:36;31.50;1.00
2945;DHT22;1482;51.398;7.128;2022-08-19T13:07:06;31.60;1.00
2945;DHT22;1482;51.398;7.128;2022-08-19T13:09:33;31.80;1.00
2945;DHT22;1482;51.398;7.128;2022-08-19T13:11:58;31.90;1.00
2945;DHT22;1482;51.398;7.128;2022-08-19T13:14:27;32.00;1.00
2945;DHT22;1482;51.398;7.128;2022-08-19T13:16:55;32.00;1.00
2945;DHT22;1482;51.398;7.128;2022-08-19T13:19:22;32.00;1.00
2945;DHT22;1482;51.398;7.128;2022-08-19T13:21:52;31.90;1.00
2945;DHT22;1482;51.398;7.128;2022-08-19T13:24:19;32.00;1.00
2945;DHT22;1482;51.398;7.128;2022-08-19T13:26:44;32.00;1.00
2945;DHT22;1482;51.398;7.128;2022-08-19T13:29:10;32.10;1.00
2945;DHT22;1482;51.398;7.128;2022-08-19T13:31:54;32.20;1.00
2945;DHT22;1482;51.398;7.128;2022-08-19T13:34:38;32.30;1.00
2945;DHT22;1482;51.398;7.128;2022-08-19T13:37:05;32.30;1.00
2945;DHT22;1482;51.398;7.128;2022-08-19T13:39:34;32.30;1.00
2945;DHT22;1482;51.398;7.128;2022-08-19T13:42:01;32.30;1.00
2945;DHT22;1482;51.398;7.128;2022-08-19T13:44:28;32.20;1.00
2945;DHT22;1482;51.398;7.128;2022-08-19T13:46:59;32.30;1.00
2945;DHT22;1482;51.398;7.128;2022-08-19T13:49:28;32.10;1.00
2945;DHT22;1482;51.398;7.128;2022-08-19T13:51:55;32.10;1.00
2945;DHT22;1482;51.398;7.128;2022-08-19T13:54:20;32.00;1.00
2945;DHT22;1482;51.398;7.128;2022-08-19T13:56:46;31.90;1.00
2945;DHT22;1482;51.398;7.128;2022-08-19T13:59:13;31.80;1.00
2945;DHT22;1482;51.398;7.128;2022-08-19T14:01:39;31.80;1.00
2945;DHT22;1482;51.398;7.128;2022-08-19T14:04:05;31.80;1.00
2945;DHT22;1482;51.398;7.128;2022-08-19T14:06:31;31.60;1.00
2945;DHT22;1482;51.398;7.128;2022-08-19T14:08:57;31.70;1.00
2945;DHT22;1482;51.398;7.128;2022-08-19T14:11:23;31.70;1.00
2945;DHT22;1482;51.398;7.128;2022-08-19T14:13:49;31.60;1.00
2945;DHT22;1482;51.398;7.128;2022-08-19T14:16:16;31.60;1.00
2945;DHT22;1482;51.398;7.128;2022-08-19T14:18:42;31.50;1.00
2945;DHT22;1482;51.398;7.128;2022-08-19T14:21:17;31.50;1.00
2945;DHT22;1482;51.398;7.128;2022-08-19T14:23:45;31.40;1.00
2945;DHT22;1482;51.398;7.128;2022-08-19T14:26:14;31.40;1.00
2945;DHT22;1482;51.398;7.128;2022-08-19T14:28:40;31.50;1.00
2945;DHT22;1482;51.398;7.128;2022-08-19T14:31:14;31.30;1.00
2945;DHT22;1482;51.398;7.128;2022-08-19T14:33:45;31.20;1.00
2945;DHT22;1482;51.398;7.128;2022-08-19T14:36:11;31.20;1.00
2945;DHT22;1482;51.398;7.128;2022-08-19T14:38:37;31.00;1.00
2945;DHT22;1482;51.398;7.128;2022-08-19T14:43:34;31.00;1.00
2945;DHT22;1482;51.398;7.128;2022-08-19T14:46:00;30.90;1.00
2945;DHT22;1482;51.398;7.128;2022-08-19T14:48:25;30.90;1.00
2945;DHT22;1482;51.398;7.128;2022-08-19T14:50:51;30.90;1.00
2945;DHT22;1482;51.398;7.128;2022-08-19T14:53:17;31.00;1.00
2945;DHT22;1482;51.398;7.128;2022-08-19T14:55:44;30.90;1.00
2945;DHT22;1482;51.398;7.128;2022-08-19T14:58:10;30.90;1.00
2945;DHT22;1482;51.398;7.128;2022-08-19T15:00:36;31.00;1.00
2945;DHT22;1482;51.398;7.128;2022-08-19T15:03:01;31.00;1.00
2945;DHT22;1482;51.398;7.128;2022-08-19T15:05:27;30.90;1.00
2945;DHT22;1482;51.398;7.128;2022-08-19T15:07:52;30.70;1.00
2945;DHT22;1482;51.398;7.128;2022-08-19T15:10:19;30.50;1.00
2945;DHT22;1482;51.398;7.128;2022-08-19T15:12:48;30.40;1.00
2945;DHT22;1482;51.398;7.128;2022-08-19T15:15:15;30.20;1.00
2945;DHT22;1482;51.398;7.128;2022-08-19T15:17:43;30.10;1.00
2945;DHT22;1482;51.398;7.128;2022-08-19T15:20:10;30.10;1.00
2945;DHT22;1482;51.398;7.128;2022-08-19T15:22:36;30.10;1.00
2945;DHT22;1482;51.398;7.128;2022-08-19T15:25:04;30.10;1.00
2945;DHT22;1482;51.398;7.128;2022-08-19T15:27:30;30.10;1.00
2945;DHT22;1482;51.398;7.128;2022-08-19T15:29:55;30.10;1.00
2945;DHT22;1482;51.398;7.128;2022-08-19T15:32:22;30.00;1.00
2945;DHT22;1482;51.398;7.128;2022-08-19T15:34:48;29.90;1.00
2945;DHT22;1482;51.398;7.128;2022-08-19T15:37:14;29.80;1.00
2945;DHT22;1482;51.398;7.128;2022-08-19T15:39:40;29.60;1.00
2945;DHT22;1482;51.398;7.128;2022-08-19T15:42:05;29.60;1.00
2945;DHT22;1482;51.398;7.128;2022-08-19T15:44:32;29.40;1.00
2945;DHT22;1482;51.398;7.128;2022-08-19T15:46:58;29.30;1.00
2945;DHT22;1482;51.398;7.128;2022-08-19T15:49:24;29.10;1.00
2945;DHT22;1482;51.398;7.128;2022-08-19T15:51:50;29.00;1.00
2945;DHT22;1482;51.398;7.128;2022-08-19T15:54:19;28.90;1.00
2945;DHT22;1482;51.398;7.128;2022-08-19T15:56:49;28.80;1.00
2945;DHT22;1482;51.398;7.128;2022-08-19T15:59:36;28.70;1.00
2945;DHT22;1482;51.398;7.128;2022-08-19T16:02:24;28.70;1.00
2945;DHT22;1482;51.398;7.128;2022-08-19T16:05:11;28.70;1.00
2945;DHT22;1482;51.398;7.128;2022-08-19T16:07:55;28.70;1.00
2945;DHT22;1482;51.398;7.128;2022-08-19T16:10:21;28.80;1.00
2945;DHT22;1482;51.398;7.128;2022-08-19T16:12:47;28.80;1.00
2945;DHT22;1482;51.398;7.128;2022-08-19T16:15:12;28.80;1.00
2945;DHT22;1482;51.398;7.128;2022-08-19T16:17:39;28.90;1.00
2945;DHT22;1482;51.398;7.128;2022-08-19T16:20:07;28.90;1.00
2945;DHT22;1482;51.398;7.128;2022-08-19T16:22:36;28.90;1.00
2945;DHT22;1482;51.398;7.128;2022-08-19T16:25:05;28.80;1.00
2945;DHT22;1482;51.398;7.128;2022-08-19T16:27:31;28.90;1.00
2945;DHT22;1482;51.398;7.128;2022-08-19T16:29:57;28.90;1.00
2945;DHT22;1482;51.398;7.128;2022-08-19T16:32:23;28.80;1.00
2945;DHT22;1482;51.398;7.128;2022-08-19T16:34:49;28.70;1.00